sensor_id;sensor_type;location;lat;lon;timestamp;P1;durP1;ratioP1;P2;durP2;ratioP2
45366;SDS011;31100;55.848;37.636;2023-02-27T00:02:24;6.07;;;3.95;;
45366;SDS011;31100;55.848;37.636;2023-02-27T00:04:50;6.25;;;3.85;;
45366;SDS011;31100;55.848;37.636;2023-02-27T00:07:16;6.80;;;4.15;;
45366;SDS011;31100;55.848;37.636;2023-02-27T00:09:42;7.50;;;3.80;;
45366;SDS011;31100;55.848;37.636;2023-02-27T00:12:08;6.32;;;3.72;;
45366;SDS011;31100;55.848;37.636;2023-02-27T00:14:34;6.07;;;3.85;;
45366;SDS011;31100;55.848;37.636;2023-02-27T00:16:59;6.35;;;3.80;;
45366;SDS011;31100;55.848;37.636;2023-02-27T00:19:25;6.47;;;4.32;;
45366;SDS011;31100;55.848;37.636;2023-02-27T00:21:51;5.90;;;3.58;;
45366;SDS011;31100;55.848;37.636;2023-02-27T00:24:16;7.75;;;4.30;;
45366;SDS011;31100;55.848;37.636;2023-02-27T00:26:42;7.53;;;4.20;;
45366;SDS011;31100;55.848;37.636;2023-02-27T00:29:07;8.00;;;4.40;;
45366;SDS011;31100;55.848;37.636;2023-02-27T00:31:33;6.97;;;4.38;;
45366;SDS011;31100;55.848;37.636;2023-02-27T00:33:59;7.45;;;4.43;;
45366;SDS011;31100;55.848;37.636;2023-02-27T00:36:25;8.82;;;4.10;;
45366;SDS011;31100;55.848;37.636;2023-02-27T00:38:50;7.15;;;4.30;;
45366;SDS011;31100;55.848;37.636;2023-02-27T00:41:16;6.13;;;3.60;;
45366;SDS011;31100;55.848;37.636;2023-02-27T00:43:42;7.28;;;4.40;;
45366;SDS011;31100;55.848;37.636;2023-02-27T00:46:07;7.38;;;3.70;;
45366;SDS011;31100;55.848;37.636;2023-02-27T00:48:34;5.82;;;3.35;;
45366;SDS011;31100;55.848;37.636;2023-02-27T00:50:59;6.22;;;3.78;;
45366;SDS011;31100;55.848;37.636;2023-02-27T00:53:25;6.18;;;3.42;;
45366;SDS011;31100;55.848;37.636;2023-02-27T00:55:51;6.03;;;3.60;;
45366;SDS011;31100;55.848;37.636;2023-02-27T00:58:16;5.80;;;3.70;;
45366;SDS011;31100;55.848;37.636;2023-02-27T01:00:42;4.63;;;2.85;;
45366;SDS011;31100;55.848;37.636;2023-02-27T01:03:07;7.03;;;4.50;;
45366;SDS011;31100;55.848;37.636;2023-02-27T01:05:33;5.25;;;3.33;;
45366;SDS011;31100;55.848;37.636;2023-02-27T01:07:58;9.48;;;4.63;;
45366;SDS011;31100;55.848;37.636;2023-02-27T01:10:24;7.38;;;4.03;;
45366;SDS011;31100;55.848;37.636;2023-02-27T01:12:49;6.30;;;4.10;;
45366;SDS011;31100;55.848;37.636;2023-02-27T01:15:15;6.65;;;4.13;;
45366;SDS011;31100;55.848;37.636;2023-02-27T01:17:41;6.72;;;3.95;;
45366;SDS011;31100;55.848;37.636;2023-02-27T01:20:07;5.22;;;3.28;;
45366;SDS011;31100;55.848;37.636;2023-02-27T01:22:34;6.20;;;3.55;;
45366;SDS011;31100;55.848;37.636;2023-02-27T01:25:00;5.60;;;3.55;;
45366;SDS011;31100;55.848;37.636;2023-02-27T01:27:26;6.35;;;3.83;;
45366;SDS011;31100;55.848;37.636;2023-02-27T01:29:51;6.47;;;3.97;;
45366;SDS011;31100;55.848;37.636;2023-02-27T01:32:17;6.28;;;4.00;;
45366;SDS011;31100;55.848;37.636;2023-02-27T01:34:42;6.88;;;4.40;;
45366;SDS011;31100;55.848;37.636;2023-02-27T01:37:08;6.78;;;4.75;;
45366;SDS011;31100;55.848;37.636;2023-02-27T01:39:33;6.95;;;4.05;;
45366;SDS011;31100;55.848;37.636;2023-02-27T01:42:00;6.97;;;4.05;;
45366;SDS011;31100;55.848;37.636;2023-02-27T01:44:28;7.57;;;4.50;;
45366;SDS011;31100;55.848;37.636;2023-02-27T01:46:54;7.05;;;3.90;;
45366;SDS011;31100;55.848;37.636;2023-02-27T01:49:21;7.60;;;3.95;;
45366;SDS011;31100;55.848;37.636;2023-02-27T01:51:51;6.70;;;4.15;;
45366;SDS011;31100;55.848;37.636;2023-02-27T01:54:20;7.10;;;4.70;;
45366;SDS011;31100;55.848;37.636;2023-02-27T01:56:48;7.72;;;4.53;;
45366;SDS011;31100;55.848;37.636;2023-02-27T01:59:14;6.70;;;3.40;;
45366;SDS011;31100;55.848;37.636;2023-02-27T02:01:41;7.25;;;4.35;;
45366;SDS011;31100;55.848;37.636;2023-02-27T02:04:15;8.30;;;4.72;;
45366;SDS011;31100;55.848;37.636;2023-02-27T02:06:52;8.85;;;4.70;;
45366;SDS011;31100;55.848;37.636;2023-02-27T02:09:22;8.32;;;5.00;;
45366;SDS011;31100;55.848;37.636;2023-02-27T02:11:49;7.07;;;4.05;;
45366;SDS011;31100;55.848;37.636;2023-02-27T02:14:15;7.00;;;4.45;;
45366;SDS011;31100;55.848;37.636;2023-02-27T02:27:36;7.55;;;4.60;;
45366;SDS011;31100;55.848;37.636;2023-02-27T02:44:46;9.05;;;5.03;;
45366;SDS011;31100;55.848;37.636;2023-02-27T02:55:23;7.35;;;4.00;;
45366;SDS011;31100;55.848;37.636;2023-02-27T03:00:34;5.75;;;3.65;;
45366;SDS011;31100;55.848;37.636;2023-02-27T03:03:25;8.10;;;4.88;;
45366;SDS011;31100;55.848;37.636;2023-02-27T03:05:53;8.45;;;4.63;;
45366;SDS011;31100;55.848;37.636;2023-02-27T03:08:38;9.13;;;5.13;;
45366;SDS011;31100;55.848;37.636;2023-02-27T03:11:08;8.35;;;5.15;;
45366;SDS011;31100;55.848;37.636;2023-02-27T03:16:08;9.27;;;4.90;;
45366;SDS011;31100;55.848;37.636;2023-02-27T03:18:39;9.45;;;5.53;;
45366;SDS011;31100;55.848;37.636;2023-02-27T03:21:29;9.45;;;5.57;;
45366;SDS011;31100;55.848;37.636;2023-02-27T03:24:05;9.57;;;5.53;;
45366;SDS011;31100;55.848;37.636;2023-02-27T03:26:35;10.15;;;5.85;;
45366;SDS011;31100;55.848;37.636;2023-02-27T03:29:05;8.18;;;4.78;;
45366;SDS011;31100;55.848;37.636;2023-02-27T03:31:40;8.73;;;5.43;;
45366;SDS011;31100;55.848;37.636;2023-02-27T03:36:49;5.97;;;3.45;;
45366;SDS011;31100;55.848;37.636;2023-02-27T03:39:24;9.00;;;5.53;;
45366;SDS011;31100;55.848;37.636;2023-02-27T03:41:57;10.02;;;6.32;;
45366;SDS011;31100;55.848;37.636;2023-02-27T03:44:33;6.53;;;4.57;;
45366;SDS011;31100;55.848;37.636;2023-02-27T03:47:08;9.73;;;5.72;;
45366;SDS011;31100;55.848;37.636;2023-02-27T03:49:34;8.30;;;4.97;;
45366;SDS011;31100;55.848;37.636;2023-02-27T03:51:59;10.75;;;5.57;;
45366;SDS011;31100;55.848;37.636;2023-02-27T03:54:26;7.82;;;5.05;;
45366;SDS011;31100;55.848;37.636;2023-02-27T03:56:59;9.82;;;5.70;;
45366;SDS011;31100;55.848;37.636;2023-02-27T03:59:26;8.65;;;5.28;;
45366;SDS011;31100;55.848;37.636;2023-02-27T04:01:52;8.98;;;5.20;;
45366;SDS011;31100;55.848;37.636;2023-02-27T04:04:18;7.65;;;4.07;;
45366;SDS011;31100;55.848;37.636;2023-02-27T04:06:49;10.27;;;5.38;;
45366;SDS011;31100;55.848;37.636;2023-02-27T04:21:47;10.57;;;6.25;;
45366;SDS011;31100;55.848;37.636;2023-02-27T04:32:17;10.15;;;6.13;;
45366;SDS011;31100;55.848;37.636;2023-02-27T04:34:52;9.57;;;6.30;;
45366;SDS011;31100;55.848;37.636;2023-02-27T04:40:26;11.13;;;6.45;;
45366;SDS011;31100;55.848;37.636;2023-02-27T04:42:53;10.68;;;6.00;;
45366;SDS011;31100;55.848;37.636;2023-02-27T04:45:20;11.27;;;6.97;;
45366;SDS011;31100;55.848;37.636;2023-02-27T04:50:51;8.40;;;5.25;;
45366;SDS011;31100;55.848;37.636;2023-02-27T04:55:53;8.95;;;5.70;;
45366;SDS011;31100;55.848;37.636;2023-02-27T04:58:24;10.55;;;6.13;;
45366;SDS011;31100;55.848;37.636;2023-02-27T05:00:57;9.55;;;5.82;;
45366;SDS011;31100;55.848;37.636;2023-02-27T05:03:28;11.07;;;6.65;;
45366;SDS011;31100;55.848;37.636;2023-02-27T05:05:58;10.25;;;5.90;;
45366;SDS011;31100;55.848;37.636;2023-02-27T05:11:15;10.40;;;6.05;;
45366;SDS011;31100;55.848;37.636;2023-02-27T05:16:25;9.95;;;6.25;;
45366;SDS011;31100;55.848;37.636;2023-02-27T05:18:57;10.23;;;6.07;;
45366;SDS011;31100;55.848;37.636;2023-02-27T05:21:25;8.82;;;4.22;;
45366;SDS011;31100;55.848;37.636;2023-02-27T05:24:07;8.23;;;4.85;;
45366;SDS011;31100;55.848;37.636;2023-02-27T05:31:54;16.50;;;9.35;;
45366;SDS011;31100;55.848;37.636;2023-02-27T05:34:43;11.35;;;6.40;;
45366;SDS011;31100;55.848;37.636;2023-02-27T05:37:15;12.77;;;8.13;;
45366;SDS011;31100;55.848;37.636;2023-02-27T05:39:44;10.80;;;6.25;;
45366;SDS011;31100;55.848;37.636;2023-02-27T05:42:32;10.43;;;6.32;;
45366;SDS011;31100;55.848;37.636;2023-02-27T05:45:03;10.13;;;6.00;;
45366;SDS011;31100;55.848;37.636;2023-02-27T05:47:32;10.38;;;5.88;;
45366;SDS011;31100;55.848;37.636;2023-02-27T05:52:34;12.53;;;6.50;;
45366;SDS011;31100;55.848;37.636;2023-02-27T05:57:39;11.05;;;6.10;;
45366;SDS011;31100;55.848;37.636;2023-02-27T06:02:38;8.82;;;5.70;;
45366;SDS011;31100;55.848;37.636;2023-02-27T06:05:05;6.40;;;3.70;;
45366;SDS011;31100;55.848;37.636;2023-02-27T06:07:32;9.80;;;6.28;;
45366;SDS011;31100;55.848;37.636;2023-02-27T06:09:58;11.25;;;6.80;;
45366;SDS011;31100;55.848;37.636;2023-02-27T06:12:23;11.95;;;6.32;;
45366;SDS011;31100;55.848;37.636;2023-02-27T06:14:49;9.73;;;5.60;;
45366;SDS011;31100;55.848;37.636;2023-02-27T06:17:15;9.77;;;5.80;;
45366;SDS011;31100;55.848;37.636;2023-02-27T06:19:41;9.25;;;5.40;;
45366;SDS011;31100;55.848;37.636;2023-02-27T06:22:08;10.32;;;6.15;;
45366;SDS011;31100;55.848;37.636;2023-02-27T06:24:34;9.95;;;5.45;;
45366;SDS011;31100;55.848;37.636;2023-02-27T06:27:00;10.70;;;6.35;;
45366;SDS011;31100;55.848;37.636;2023-02-27T06:29:25;12.30;;;5.57;;
45366;SDS011;31100;55.848;37.636;2023-02-27T06:31:51;10.18;;;5.90;;
45366;SDS011;31100;55.848;37.636;2023-02-27T06:34:16;11.00;;;5.53;;
45366;SDS011;31100;55.848;37.636;2023-02-27T06:36:42;10.77;;;6.05;;
45366;SDS011;31100;55.848;37.636;2023-02-27T06:39:07;10.45;;;6.65;;
45366;SDS011;31100;55.848;37.636;2023-02-27T06:41:33;9.30;;;5.50;;
45366;SDS011;31100;55.848;37.636;2023-02-27T06:43:59;11.70;;;6.55;;
45366;SDS011;31100;55.848;37.636;2023-02-27T06:46:24;10.63;;;6.10;;
45366;SDS011;31100;55.848;37.636;2023-02-27T06:48:50;7.88;;;5.50;;
45366;SDS011;31100;55.848;37.636;2023-02-27T06:51:16;9.93;;;5.20;;
45366;SDS011;31100;55.848;37.636;2023-02-27T06:53:41;8.60;;;4.85;;
45366;SDS011;31100;55.848;37.636;2023-02-27T06:56:07;9.13;;;5.25;;
45366;SDS011;31100;55.848;37.636;2023-02-27T06:58:32;9.45;;;5.35;;
45366;SDS011;31100;55.848;37.636;2023-02-27T07:00:58;8.90;;;5.22;;
45366;SDS011;31100;55.848;37.636;2023-02-27T07:03:25;7.95;;;4.55;;
45366;SDS011;31100;55.848;37.636;2023-02-27T07:05:50;9.20;;;5.25;;
45366;SDS011;31100;55.848;37.636;2023-02-27T07:08:16;7.93;;;3.80;;
45366;SDS011;31100;55.848;37.636;2023-02-27T07:10:44;10.50;;;5.65;;
45366;SDS011;31100;55.848;37.636;2023-02-27T07:13:14;10.27;;;6.00;;
45366;SDS011;31100;55.848;37.636;2023-02-27T07:15:41;8.02;;;5.22;;
45366;SDS011;31100;55.848;37.636;2023-02-27T07:18:06;7.57;;;4.45;;
45366;SDS011;31100;55.848;37.636;2023-02-27T07:20:32;9.77;;;5.55;;
45366;SDS011;31100;55.848;37.636;2023-02-27T07:22:57;9.20;;;5.22;;
45366;SDS011;31100;55.848;37.636;2023-02-27T07:25:23;9.95;;;5.38;;
45366;SDS011;31100;55.848;37.636;2023-02-27T07:27:48;7.93;;;4.93;;
45366;SDS011;31100;55.848;37.636;2023-02-27T07:30:15;8.95;;;5.43;;
45366;SDS011;31100;55.848;37.636;2023-02-27T07:32:41;9.30;;;4.90;;
45366;SDS011;31100;55.848;37.636;2023-02-27T07:35:07;7.40;;;4.28;;
45366;SDS011;31100;55.848;37.636;2023-02-27T07:37:34;12.75;;;6.57;;
45366;SDS011;31100;55.848;37.636;2023-02-27T07:39:59;6.93;;;4.28;;
45366;SDS011;31100;55.848;37.636;2023-02-27T07:42:25;7.78;;;4.63;;
45366;SDS011;31100;55.848;37.636;2023-02-27T07:44:51;9.35;;;6.15;;
45366;SDS011;31100;55.848;37.636;2023-02-27T07:47:16;9.13;;;5.30;;
45366;SDS011;31100;55.848;37.636;2023-02-27T07:49:42;10.18;;;5.18;;
45366;SDS011;31100;55.848;37.636;2023-02-27T07:52:08;6.47;;;3.67;;
45366;SDS011;31100;55.848;37.636;2023-02-27T07:54:33;10.15;;;4.90;;
45366;SDS011;31100;55.848;37.636;2023-02-27T07:57:01;8.88;;;5.30;;
45366;SDS011;31100;55.848;37.636;2023-02-27T07:59:28;6.68;;;4.07;;
45366;SDS011;31100;55.848;37.636;2023-02-27T08:01:53;8.18;;;4.85;;
45366;SDS011;31100;55.848;37.636;2023-02-27T08:04:19;7.10;;;4.30;;
45366;SDS011;31100;55.848;37.636;2023-02-27T08:06:45;7.88;;;4.53;;
45366;SDS011;31100;55.848;37.636;2023-02-27T08:09:10;7.70;;;4.45;;
45366;SDS011;31100;55.848;37.636;2023-02-27T08:11:36;6.47;;;3.83;;
45366;SDS011;31100;55.848;37.636;2023-02-27T08:14:01;6.45;;;4.03;;
45366;SDS011;31100;55.848;37.636;2023-02-27T08:16:28;7.10;;;4.60;;
45366;SDS011;31100;55.848;37.636;2023-02-27T08:18:54;10.68;;;4.32;;
45366;SDS011;31100;55.848;37.636;2023-02-27T08:21:20;7.70;;;4.88;;
45366;SDS011;31100;55.848;37.636;2023-02-27T08:23:46;6.82;;;4.68;;
45366;SDS011;31100;55.848;37.636;2023-02-27T08:26:11;7.03;;;4.40;;
45366;SDS011;31100;55.848;37.636;2023-02-27T08:28:37;8.25;;;4.50;;
45366;SDS011;31100;55.848;37.636;2023-02-27T08:31:03;7.65;;;4.93;;
45366;SDS011;31100;55.848;37.636;2023-02-27T08:33:28;7.78;;;4.20;;
45366;SDS011;31100;55.848;37.636;2023-02-27T08:35:54;7.68;;;4.03;;
45366;SDS011;31100;55.848;37.636;2023-02-27T08:38:21;8.23;;;4.20;;
45366;SDS011;31100;55.848;37.636;2023-02-27T08:40:48;6.43;;;3.67;;
45366;SDS011;31100;55.848;37.636;2023-02-27T08:43:14;7.63;;;4.70;;
45366;SDS011;31100;55.848;37.636;2023-02-27T08:45:40;6.20;;;3.45;;
45366;SDS011;31100;55.848;37.636;2023-02-27T08:48:06;8.52;;;4.50;;
45366;SDS011;31100;55.848;37.636;2023-02-27T08:50:31;7.35;;;4.10;;
45366;SDS011;31100;55.848;37.636;2023-02-27T08:52:57;6.43;;;3.15;;
45366;SDS011;31100;55.848;37.636;2023-02-27T08:55:22;6.90;;;3.90;;
45366;SDS011;31100;55.848;37.636;2023-02-27T08:57:48;9.00;;;5.85;;
45366;SDS011;31100;55.848;37.636;2023-02-27T09:00:14;5.60;;;3.30;;
45366;SDS011;31100;55.848;37.636;2023-02-27T09:02:40;6.72;;;3.95;;
45366;SDS011;31100;55.848;37.636;2023-02-27T09:05:06;7.72;;;4.35;;
45366;SDS011;31100;55.848;37.636;2023-02-27T09:07:32;7.47;;;4.03;;
45366;SDS011;31100;55.848;37.636;2023-02-27T09:09:58;9.35;;;4.10;;
45366;SDS011;31100;55.848;37.636;2023-02-27T09:12:24;6.60;;;3.97;;
45366;SDS011;31100;55.848;37.636;2023-02-27T09:14:50;8.10;;;4.28;;
45366;SDS011;31100;55.848;37.636;2023-02-27T09:17:15;7.13;;;4.22;;
45366;SDS011;31100;55.848;37.636;2023-02-27T09:19:41;6.90;;;4.35;;
45366;SDS011;31100;55.848;37.636;2023-02-27T09:22:06;6.25;;;3.38;;
45366;SDS011;31100;55.848;37.636;2023-02-27T09:24:32;5.95;;;3.60;;
45366;SDS011;31100;55.848;37.636;2023-02-27T09:26:58;7.97;;;3.97;;
45366;SDS011;31100;55.848;37.636;2023-02-27T09:29:23;6.70;;;4.07;;
45366;SDS011;31100;55.848;37.636;2023-02-27T09:31:49;5.35;;;3.47;;
45366;SDS011;31100;55.848;37.636;2023-02-27T09:34:16;6.45;;;4.00;;
45366;SDS011;31100;55.848;37.636;2023-02-27T09:36:41;7.93;;;4.05;;
45366;SDS011;31100;55.848;37.636;2023-02-27T09:39:07;8.40;;;3.78;;
45366;SDS011;31100;55.848;37.636;2023-02-27T09:47:11;6.93;;;3.40;;
45366;SDS011;31100;55.848;37.636;2023-02-27T09:50:02;6.88;;;3.53;;
45366;SDS011;31100;55.848;37.636;2023-02-27T09:52:48;7.68;;;4.30;;
45366;SDS011;31100;55.848;37.636;2023-02-27T09:55:19;7.25;;;3.83;;
45366;SDS011;31100;55.848;37.636;2023-02-27T09:57:47;9.90;;;4.63;;
45366;SDS011;31100;55.848;37.636;2023-02-27T10:08:18;6.70;;;4.18;;
45366;SDS011;31100;55.848;37.636;2023-02-27T10:10:55;4.80;;;2.90;;
45366;SDS011;31100;55.848;37.636;2023-02-27T10:16:05;7.95;;;3.92;;
45366;SDS011;31100;55.848;37.636;2023-02-27T10:18:44;7.38;;;3.92;;
45366;SDS011;31100;55.848;37.636;2023-02-27T10:21:20;6.25;;;3.53;;
45366;SDS011;31100;55.848;37.636;2023-02-27T10:26:18;6.05;;;3.75;;
45366;SDS011;31100;55.848;37.636;2023-02-27T10:28:45;6.43;;;3.65;;
45366;SDS011;31100;55.848;37.636;2023-02-27T10:31:13;6.07;;;3.80;;
45366;SDS011;31100;55.848;37.636;2023-02-27T10:33:42;7.25;;;4.05;;
45366;SDS011;31100;55.848;37.636;2023-02-27T10:36:08;7.00;;;4.40;;
45366;SDS011;31100;55.848;37.636;2023-02-27T10:38:44;7.75;;;4.50;;
45366;SDS011;31100;55.848;37.636;2023-02-27T10:41:14;8.18;;;4.80;;
45366;SDS011;31100;55.848;37.636;2023-02-27T10:43:41;7.38;;;3.65;;
45366;SDS011;31100;55.848;37.636;2023-02-27T10:46:14;7.35;;;4.18;;
45366;SDS011;31100;55.848;37.636;2023-02-27T10:48:42;7.35;;;4.10;;
45366;SDS011;31100;55.848;37.636;2023-02-27T10:54:12;8.40;;;4.63;;
45366;SDS011;31100;55.848;37.636;2023-02-27T10:56:38;6.80;;;4.05;;
45366;SDS011;31100;55.848;37.636;2023-02-27T10:59:05;9.05;;;4.88;;
45366;SDS011;31100;55.848;37.636;2023-02-27T11:01:48;7.07;;;3.78;;
45366;SDS011;31100;55.848;37.636;2023-02-27T11:04:24;7.22;;;3.80;;
45366;SDS011;31100;55.848;37.636;2023-02-27T11:06:51;6.68;;;4.00;;
45366;SDS011;31100;55.848;37.636;2023-02-27T11:09:20;6.03;;;3.75;;
45366;SDS011;31100;55.848;37.636;2023-02-27T11:11:50;5.65;;;4.15;;
45366;SDS011;31100;55.848;37.636;2023-02-27T11:16:48;6.97;;;3.88;;
45366;SDS011;31100;55.848;37.636;2023-02-27T11:19:22;7.90;;;4.20;;
45366;SDS011;31100;55.848;37.636;2023-02-27T11:24:26;7.05;;;4.00;;
45366;SDS011;31100;55.848;37.636;2023-02-27T11:27:03;9.10;;;4.25;;
45366;SDS011;31100;55.848;37.636;2023-02-27T11:29:53;9.52;;;5.25;;
45366;SDS011;31100;55.848;37.636;2023-02-27T11:32:35;8.75;;;4.13;;
45366;SDS011;31100;55.848;37.636;2023-02-27T11:35:05;7.88;;;4.40;;
45366;SDS011;31100;55.848;37.636;2023-02-27T11:38:01;6.53;;;3.63;;
45366;SDS011;31100;55.848;37.636;2023-02-27T11:40:33;8.13;;;4.60;;
45366;SDS011;31100;55.848;37.636;2023-02-27T11:43:05;8.32;;;3.90;;
45366;SDS011;31100;55.848;37.636;2023-02-27T11:45:39;7.28;;;4.10;;
45366;SDS011;31100;55.848;37.636;2023-02-27T11:48:15;7.18;;;3.20;;
45366;SDS011;31100;55.848;37.636;2023-02-27T11:56:22;5.30;;;3.20;;
45366;SDS011;31100;55.848;37.636;2023-02-27T11:59:00;5.47;;;3.38;;
45366;SDS011;31100;55.848;37.636;2023-02-27T12:01:42;6.40;;;3.92;;
45366;SDS011;31100;55.848;37.636;2023-02-27T12:11:59;6.95;;;3.60;;
45366;SDS011;31100;55.848;37.636;2023-02-27T12:14:28;6.18;;;3.58;;
45366;SDS011;31100;55.848;37.636;2023-02-27T12:16:59;6.38;;;3.65;;
45366;SDS011;31100;55.848;37.636;2023-02-27T12:19:30;7.63;;;3.90;;
45366;SDS011;31100;55.848;37.636;2023-02-27T12:22:05;6.10;;;3.20;;
45366;SDS011;31100;55.848;37.636;2023-02-27T12:27:53;7.03;;;3.83;;
45366;SDS011;31100;55.848;37.636;2023-02-27T12:30:25;6.25;;;3.55;;
45366;SDS011;31100;55.848;37.636;2023-02-27T12:33:02;7.10;;;4.35;;
45366;SDS011;31100;55.848;37.636;2023-02-27T12:35:49;7.32;;;4.28;;
45366;SDS011;31100;55.848;37.636;2023-02-27T12:38:20;7.57;;;4.07;;
45366;SDS011;31100;55.848;37.636;2023-02-27T12:43:47;7.15;;;3.45;;
45366;SDS011;31100;55.848;37.636;2023-02-27T12:59:59;6.05;;;3.47;;
45366;SDS011;31100;55.848;37.636;2023-02-27T13:02:38;5.95;;;3.55;;
45366;SDS011;31100;55.848;37.636;2023-02-27T13:11:02;8.38;;;4.38;;
45366;SDS011;31100;55.848;37.636;2023-02-27T13:13:38;8.00;;;3.53;;
45366;SDS011;31100;55.848;37.636;2023-02-27T13:16:16;9.40;;;4.47;;
45366;SDS011;31100;55.848;37.636;2023-02-27T13:18:46;7.82;;;4.13;;
45366;SDS011;31100;55.848;37.636;2023-02-27T13:21:23;7.07;;;4.32;;
45366;SDS011;31100;55.848;37.636;2023-02-27T13:27:19;6.00;;;3.65;;
45366;SDS011;31100;55.848;37.636;2023-02-27T13:29:40;5.97;;;3.97;;
45366;SDS011;31100;55.848;37.636;2023-02-27T13:34:53;9.23;;;4.85;;
45366;SDS011;31100;55.848;37.636;2023-02-27T13:37:22;9.15;;;4.63;;
45366;SDS011;31100;55.848;37.636;2023-02-27T13:45:04;11.38;;;5.53;;
45366;SDS011;31100;55.848;37.636;2023-02-27T13:47:36;8.70;;;5.13;;
45366;SDS011;31100;55.848;37.636;2023-02-27T13:52:45;8.10;;;4.82;;
45366;SDS011;31100;55.848;37.636;2023-02-27T13:57:57;10.15;;;5.32;;
45366;SDS011;31100;55.848;37.636;2023-02-27T14:00:25;8.55;;;4.88;;
45366;SDS011;31100;55.848;37.636;2023-02-27T14:02:53;10.95;;;5.55;;
45366;SDS011;31100;55.848;37.636;2023-02-27T14:05:32;9.82;;;5.88;;
45366;SDS011;31100;55.848;37.636;2023-02-27T14:08:03;8.88;;;4.63;;
45366;SDS011;31100;55.848;37.636;2023-02-27T14:24:44;10.55;;;6.00;;
45366;SDS011;31100;55.848;37.636;2023-02-27T14:27:16;11.18;;;6.20;;
45366;SDS011;31100;55.848;37.636;2023-02-27T14:29:46;11.70;;;6.32;;
45366;SDS011;31100;55.848;37.636;2023-02-27T14:32:16;9.75;;;6.40;;
45366;SDS011;31100;55.848;37.636;2023-02-27T14:34:45;9.55;;;6.00;;
45366;SDS011;31100;55.848;37.636;2023-02-27T14:37:12;8.73;;;4.97;;
45366;SDS011;31100;55.848;37.636;2023-02-27T14:39:46;8.32;;;5.30;;
45366;SDS011;31100;55.848;37.636;2023-02-27T14:44:57;8.32;;;5.40;;
45366;SDS011;31100;55.848;37.636;2023-02-27T14:47:25;8.10;;;4.97;;
45366;SDS011;31100;55.848;37.636;2023-02-27T14:49:52;8.02;;;4.97;;
45366;SDS011;31100;55.848;37.636;2023-02-27T14:52:24;9.85;;;5.60;;
45366;SDS011;31100;55.848;37.636;2023-02-27T14:54:59;10.55;;;5.72;;
45366;SDS011;31100;55.848;37.636;2023-02-27T14:57:38;10.23;;;5.75;;
45366;SDS011;31100;55.848;37.636;2023-02-27T15:00:04;8.93;;;5.63;;
45366;SDS011;31100;55.848;37.636;2023-02-27T15:02:34;8.98;;;5.30;;
45366;SDS011;31100;55.848;37.636;2023-02-27T15:07:26;11.80;;;6.65;;
45366;SDS011;31100;55.848;37.636;2023-02-27T15:09:55;6.38;;;3.65;;
45366;SDS011;31100;55.848;37.636;2023-02-27T15:12:23;9.45;;;5.43;;
45366;SDS011;31100;55.848;37.636;2023-02-27T15:14:51;9.15;;;5.05;;
45366;SDS011;31100;55.848;37.636;2023-02-27T15:17:22;7.38;;;4.13;;
45366;SDS011;31100;55.848;37.636;2023-02-27T15:19:50;7.63;;;4.85;;
45366;SDS011;31100;55.848;37.636;2023-02-27T15:22:20;8.88;;;5.40;;
45366;SDS011;31100;55.848;37.636;2023-02-27T15:24:52;8.90;;;5.07;;
45366;SDS011;31100;55.848;37.636;2023-02-27T15:27:21;11.80;;;6.13;;
45366;SDS011;31100;55.848;37.636;2023-02-27T15:29:52;9.52;;;5.40;;
45366;SDS011;31100;55.848;37.636;2023-02-27T15:34:55;9.55;;;5.45;;
45366;SDS011;31100;55.848;37.636;2023-02-27T15:37:23;10.60;;;6.28;;
45366;SDS011;31100;55.848;37.636;2023-02-27T15:39:50;9.85;;;5.97;;
45366;SDS011;31100;55.848;37.636;2023-02-27T15:42:18;9.57;;;5.43;;
45366;SDS011;31100;55.848;37.636;2023-02-27T15:44:46;8.45;;;5.15;;
45366;SDS011;31100;55.848;37.636;2023-02-27T15:47:14;8.68;;;5.20;;
45366;SDS011;31100;55.848;37.636;2023-02-27T15:49:43;8.50;;;5.15;;
45366;SDS011;31100;55.848;37.636;2023-02-27T15:52:14;9.15;;;5.38;;
45366;SDS011;31100;55.848;37.636;2023-02-27T15:54:46;8.55;;;5.07;;
45366;SDS011;31100;55.848;37.636;2023-02-27T15:57:16;9.07;;;5.18;;
45366;SDS011;31100;55.848;37.636;2023-02-27T15:59:43;10.00;;;5.45;;
45366;SDS011;31100;55.848;37.636;2023-02-27T16:02:14;8.70;;;5.15;;
45366;SDS011;31100;55.848;37.636;2023-02-27T16:04:45;9.65;;;4.90;;
45366;SDS011;31100;55.848;37.636;2023-02-27T16:07:13;8.77;;;5.22;;
45366;SDS011;31100;55.848;37.636;2023-02-27T16:09:41;8.60;;;5.32;;
45366;SDS011;31100;55.848;37.636;2023-02-27T16:18:30;9.00;;;5.40;;
45366;SDS011;31100;55.848;37.636;2023-02-27T16:21:07;7.97;;;4.95;;
45366;SDS011;31100;55.848;37.636;2023-02-27T16:23:37;9.48;;;5.20;;
45366;SDS011;31100;55.848;37.636;2023-02-27T16:26:23;10.63;;;6.75;;
45366;SDS011;31100;55.848;37.636;2023-02-27T16:33:45;9.93;;;5.70;;
45366;SDS011;31100;55.848;37.636;2023-02-27T16:36:18;8.57;;;4.82;;
45366;SDS011;31100;55.848;37.636;2023-02-27T16:38:46;7.70;;;5.00;;
45366;SDS011;31100;55.848;37.636;2023-02-27T16:41:12;9.13;;;5.45;;
45366;SDS011;31100;55.848;37.636;2023-02-27T16:43:42;8.82;;;5.20;;
45366;SDS011;31100;55.848;37.636;2023-02-27T16:46:09;8.45;;;5.22;;
45366;SDS011;31100;55.848;37.636;2023-02-27T16:48:35;9.27;;;5.03;;
45366;SDS011;31100;55.848;37.636;2023-02-27T16:51:01;9.48;;;5.50;;
45366;SDS011;31100;55.848;37.636;2023-02-27T16:53:27;8.48;;;5.47;;
45366;SDS011;31100;55.848;37.636;2023-02-27T16:55:53;9.25;;;5.00;;
45366;SDS011;31100;55.848;37.636;2023-02-27T16:58:19;10.77;;;6.75;;
45366;SDS011;31100;55.848;37.636;2023-02-27T17:00:45;7.93;;;4.88;;
45366;SDS011;31100;55.848;37.636;2023-02-27T17:03:10;8.98;;;5.53;;
45366;SDS011;31100;55.848;37.636;2023-02-27T17:05:36;8.45;;;4.68;;
45366;SDS011;31100;55.848;37.636;2023-02-27T17:08:02;10.20;;;5.50;;
45366;SDS011;31100;55.848;37.636;2023-02-27T17:10:29;6.65;;;3.83;;
45366;SDS011;31100;55.848;37.636;2023-02-27T17:12:54;6.22;;;3.75;;
45366;SDS011;31100;55.848;37.636;2023-02-27T17:15:20;5.55;;;3.50;;
45366;SDS011;31100;55.848;37.636;2023-02-27T17:17:46;7.65;;;4.20;;
45366;SDS011;31100;55.848;37.636;2023-02-27T17:20:12;7.20;;;3.80;;
45366;SDS011;31100;55.848;37.636;2023-02-27T17:22:39;7.15;;;4.30;;
45366;SDS011;31100;55.848;37.636;2023-02-27T17:25:06;7.85;;;4.15;;
45366;SDS011;31100;55.848;37.636;2023-02-27T17:27:33;6.20;;;3.92;;
45366;SDS011;31100;55.848;37.636;2023-02-27T17:29:59;6.80;;;3.88;;
45366;SDS011;31100;55.848;37.636;2023-02-27T17:32:24;7.68;;;4.20;;
45366;SDS011;31100;55.848;37.636;2023-02-27T17:34:54;8.40;;;4.13;;
45366;SDS011;31100;55.848;37.636;2023-02-27T17:37:20;8.10;;;4.45;;
45366;SDS011;31100;55.848;37.636;2023-02-27T17:39:46;7.90;;;4.35;;
45366;SDS011;31100;55.848;37.636;2023-02-27T17:42:11;7.57;;;4.22;;
45366;SDS011;31100;55.848;37.636;2023-02-27T17:44:40;8.43;;;4.55;;
45366;SDS011;31100;55.848;37.636;2023-02-27T17:47:06;7.18;;;4.05;;
45366;SDS011;31100;55.848;37.636;2023-02-27T17:49:32;8.07;;;4.38;;
45366;SDS011;31100;55.848;37.636;2023-02-27T17:51:58;6.70;;;4.05;;
45366;SDS011;31100;55.848;37.636;2023-02-27T17:54:24;9.25;;;5.28;;
45366;SDS011;31100;55.848;37.636;2023-02-27T17:56:50;8.00;;;4.63;;
45366;SDS011;31100;55.848;37.636;2023-02-27T17:59:16;8.35;;;5.13;;
45366;SDS011;31100;55.848;37.636;2023-02-27T18:01:41;8.90;;;4.82;;
45366;SDS011;31100;55.848;37.636;2023-02-27T18:04:07;7.43;;;4.60;;
45366;SDS011;31100;55.848;37.636;2023-02-27T18:06:35;9.50;;;5.05;;
45366;SDS011;31100;55.848;37.636;2023-02-27T18:09:02;8.35;;;4.40;;